<?xml version="1.0" encoding="UTF-8" standalone="no" ?>
<gpx xmlns="http://www.topografix.com/GPX/1/1" creator="MapSource 6.15.5" version="1.1" xmlns:xsi="http://www.w3.org/2001/XMLSchema-instance" xsi:schemaLocation="http://www.topografix.com/GPX/1/1 http://www.topografix.com/GPX/1/1/gpx.xsd">

  <metadata>
    <link href="http://www.garmin.com">
      <text>Garmin International</text>
    </link>
    <time>2015-10-04T17:44:41Z</time>
    <bounds maxlat="51.8965550" maxlon="7.2072530" minlat="51.8803810" minlon="7.1855180"/>
  </metadata>

  <trk>
    <name>ACTIVE LOG155635</name>
    <extensions>
      <gpxx:TrackExtension xmlns:gpxx="http://www.garmin.com/xmlschemas/GpxExtensions/v3">
        <gpxx:DisplayColor>Magenta</gpxx:DisplayColor>
      </gpxx:TrackExtension>
    </extensions>
    <trkseg>
      <trkpt lat="51.8955460" lon="7.1899890">
        <ele>-53.6660000</ele>
        <time>2015-03-10T15:56:35Z</time>
      </trkpt>
      <trkpt lat="51.8958720" lon="7.1898520">
        <ele>-48.4700000</ele>
        <time>2015-03-10T15:57:00Z</time>
      </trkpt>
      <trkpt lat="51.8958760" lon="7.1898510">
        <ele>-44.4010000</ele>
        <time>2015-03-10T15:57:01Z</time>
      </trkpt>
      <trkpt lat="51.8958820" lon="7.1898480">
        <ele>-41.1120000</ele>
        <time>2015-03-10T15:57:02Z</time>
      </trkpt>
      <trkpt lat="51.8958850" lon="7.1898470">
        <ele>-36.0660000</ele>
        <time>2015-03-10T15:57:03Z</time>
      </trkpt>
      <trkpt lat="51.8958880" lon="7.1898450">
        <ele>-32.8510000</ele>
        <time>2015-03-10T15:57:04Z</time>
      </trkpt>
      <trkpt lat="51.8958910" lon="7.1898450">
        <ele>-28.8950000</ele>
        <time>2015-03-10T15:57:05Z</time>
      </trkpt>
      <trkpt lat="51.8958940" lon="7.1898460">
        <ele>-25.1670000</ele>
        <time>2015-03-10T15:57:06Z</time>
      </trkpt>
      <trkpt lat="51.8958950" lon="7.1898460">
        <ele>-22.0740000</ele>
        <time>2015-03-10T15:57:07Z</time>
      </trkpt>
      <trkpt lat="51.8958970" lon="7.1898460">
        <ele>-18.3250000</ele>
        <time>2015-03-10T15:57:08Z</time>
      </trkpt>
      <trkpt lat="51.8958970" lon="7.1898460">
        <ele>-14.9590000</ele>
        <time>2015-03-10T15:57:09Z</time>
      </trkpt>
      <trkpt lat="51.8958980" lon="7.1898460">
        <ele>-9.5030000</ele>
        <time>2015-03-10T15:57:11Z</time>
      </trkpt>
      <trkpt lat="51.8958980" lon="7.1898460">
        <ele>-3.3570000</ele>
        <time>2015-03-10T15:57:13Z</time>
      </trkpt>
      <trkpt lat="51.8958980" lon="7.1898460">
        <ele>1.8370000</ele>
        <time>2015-03-10T15:57:15Z</time>
      </trkpt>
      <trkpt lat="51.8958980" lon="7.1898470">
        <ele>5.0110000</ele>
        <time>2015-03-10T15:57:16Z</time>
      </trkpt>
      <trkpt lat="51.8958980" lon="7.1898470">
        <ele>9.0580000</ele>
        <time>2015-03-10T15:57:18Z</time>
      </trkpt>
      <trkpt lat="51.8958980" lon="7.1898480">
        <ele>13.4920000</ele>
        <time>2015-03-10T15:57:20Z</time>
      </trkpt>
      <trkpt lat="51.8958980" lon="7.1898480">
        <ele>18.4170000</ele>
        <time>2015-03-10T15:57:22Z</time>
      </trkpt>
      <trkpt lat="51.8958980" lon="7.1898480">
        <ele>22.1440000</ele>
        <time>2015-03-10T15:57:24Z</time>
      </trkpt>
      <trkpt lat="51.8958980" lon="7.1898480">
        <ele>25.7340000</ele>
        <time>2015-03-10T15:57:26Z</time>
      </trkpt>
      <trkpt lat="51.8958980" lon="7.1898480">
        <ele>28.8610000</ele>
        <time>2015-03-10T15:57:28Z</time>
      </trkpt>
      <trkpt lat="51.8958980" lon="7.1898490">
        <ele>32.9960000</ele>
        <time>2015-03-10T15:57:30Z</time>
      </trkpt>
      <trkpt lat="51.8958980" lon="7.1898490">
        <ele>36.0450000</ele>
        <time>2015-03-10T15:57:32Z</time>
      </trkpt>
      <trkpt lat="51.8958980" lon="7.1898490">
        <ele>39.3990000</ele>
        <time>2015-03-10T15:57:35Z</time>
      </trkpt>
      <trkpt lat="51.8958970" lon="7.1898490">
        <ele>43.6900000</ele>
        <time>2015-03-10T15:57:38Z</time>
      </trkpt>
      <trkpt lat="51.8958970" lon="7.1898490">
        <ele>47.0710000</ele>
        <time>2015-03-10T15:57:41Z</time>
      </trkpt>
      <trkpt lat="51.8958970" lon="7.1898490">
        <ele>50.1090000</ele>
        <time>2015-03-10T15:57:44Z</time>
      </trkpt>
      <trkpt lat="51.8958970" lon="7.1898490">
        <ele>53.6740000</ele>
        <time>2015-03-10T15:57:48Z</time>
      </trkpt>
      <trkpt lat="51.8958970" lon="7.1898490">
        <ele>57.2440000</ele>
        <time>2015-03-10T15:57:53Z</time>
      </trkpt>
      <trkpt lat="51.8958970" lon="7.1898490">
        <ele>58.0270000</ele>
        <time>2015-03-10T15:57:55Z</time>
      </trkpt>
      <trkpt lat="51.8958970" lon="7.1898500">
        <ele>61.2080000</ele>
        <time>2015-03-10T15:57:59Z</time>
      </trkpt>
      <trkpt lat="51.8958970" lon="7.1898500">
        <ele>61.8670000</ele>
        <time>2015-03-10T15:58:01Z</time>
      </trkpt>
      <trkpt lat="51.8958970" lon="7.1898450">
        <ele>64.8850000</ele>
        <time>2015-03-10T15:58:07Z</time>
      </trkpt>
      <trkpt lat="51.8958970" lon="7.1898430">
        <ele>65.1420000</ele>
        <time>2015-03-10T15:58:08Z</time>
      </trkpt>
      <trkpt lat="51.8958640" lon="7.1897670">
        <ele>66.2650000</ele>
        <time>2015-03-10T15:58:12Z</time>
      </trkpt>
      <trkpt lat="51.8954480" lon="7.1891350">
        <ele>66.0770000</ele>
        <time>2015-03-10T15:58:28Z</time>
      </trkpt>
      <trkpt lat="51.8948370" lon="7.1887100">
        <ele>64.5260000</ele>
        <time>2015-03-10T15:58:46Z</time>
      </trkpt>
      <trkpt lat="51.8942400" lon="7.1884390">
        <ele>64.1590000</ele>
        <time>2015-03-10T15:59:03Z</time>
      </trkpt>
      <trkpt lat="51.8936580" lon="7.1881670">
        <ele>63.6760000</ele>
        <time>2015-03-10T15:59:19Z</time>
      </trkpt>
      <trkpt lat="51.8927170" lon="7.1877170">
        <ele>62.5720000</ele>
        <time>2015-03-10T15:59:43Z</time>
      </trkpt>
      <trkpt lat="51.8921870" lon="7.1877740">
        <ele>63.3660000</ele>
        <time>2015-03-10T15:59:58Z</time>
      </trkpt>
      <trkpt lat="51.8914050" lon="7.1888010">
        <ele>62.5850000</ele>
        <time>2015-03-10T16:00:24Z</time>
      </trkpt>
      <trkpt lat="51.8907810" lon="7.1895120">
        <ele>63.7440000</ele>
        <time>2015-03-10T16:00:45Z</time>
      </trkpt>
      <trkpt lat="51.8903550" lon="7.1900050">
        <ele>63.3420000</ele>
        <time>2015-03-10T16:01:00Z</time>
      </trkpt>
      <trkpt lat="51.8899720" lon="7.1896790">
        <ele>63.0650000</ele>
        <time>2015-03-10T16:01:11Z</time>
      </trkpt>
      <trkpt lat="51.8891880" lon="7.1890790">
        <ele>61.4540000</ele>
        <time>2015-03-10T16:01:32Z</time>
      </trkpt>
      <trkpt lat="51.8883580" lon="7.1884090">
        <ele>60.2800000</ele>
        <time>2015-03-10T16:01:54Z</time>
      </trkpt>
      <trkpt lat="51.8875610" lon="7.1877810">
        <ele>59.6680000</ele>
        <time>2015-03-10T16:02:15Z</time>
      </trkpt>
      <trkpt lat="51.8874160" lon="7.1876630">
        <ele>59.2920000</ele>
        <time>2015-03-10T16:02:19Z</time>
      </trkpt>
      <trkpt lat="51.8872470" lon="7.1874300">
        <ele>57.8310000</ele>
        <time>2015-03-10T16:02:24Z</time>
      </trkpt>
      <trkpt lat="51.8868920" lon="7.1864140">
        <ele>57.2830000</ele>
        <time>2015-03-10T16:02:41Z</time>
      </trkpt>
      <trkpt lat="51.8866160" lon="7.1862690">
        <ele>57.1080000</ele>
        <time>2015-03-10T16:02:48Z</time>
      </trkpt>
      <trkpt lat="51.8864130" lon="7.1861970">
        <ele>57.4010000</ele>
        <time>2015-03-10T16:02:53Z</time>
      </trkpt>
      <trkpt lat="51.8855170" lon="7.1858990">
        <ele>57.6970000</ele>
        <time>2015-03-10T16:03:15Z</time>
      </trkpt>
      <trkpt lat="51.8843530" lon="7.1855180">
        <ele>56.4810000</ele>
        <time>2015-03-10T16:03:43Z</time>
      </trkpt>
      <trkpt lat="51.8842730" lon="7.1855200">
        <ele>56.0760000</ele>
        <time>2015-03-10T16:03:45Z</time>
      </trkpt>
      <trkpt lat="51.8841030" lon="7.1857180">
        <ele>55.8410000</ele>
        <time>2015-03-10T16:03:50Z</time>
      </trkpt>
      <trkpt lat="51.8838050" lon="7.1871130">
        <ele>55.8920000</ele>
        <time>2015-03-10T16:04:12Z</time>
      </trkpt>
      <trkpt lat="51.8836440" lon="7.1885880">
        <ele>55.9410000</ele>
        <time>2015-03-10T16:04:35Z</time>
      </trkpt>
      <trkpt lat="51.8832580" lon="7.1897510">
        <ele>56.3380000</ele>
        <time>2015-03-10T16:04:55Z</time>
      </trkpt>
      <trkpt lat="51.8827740" lon="7.1912430">
        <ele>56.2440000</ele>
        <time>2015-03-10T16:05:22Z</time>
      </trkpt>
      <trkpt lat="51.8824850" lon="7.1920910">
        <ele>56.6090000</ele>
        <time>2015-03-10T16:05:37Z</time>
      </trkpt>
      <trkpt lat="51.8821000" lon="7.1926670">
        <ele>56.4040000</ele>
        <time>2015-03-10T16:05:50Z</time>
      </trkpt>
      <trkpt lat="51.8815570" lon="7.1935260">
        <ele>56.3070000</ele>
        <time>2015-03-10T16:06:08Z</time>
      </trkpt>
      <trkpt lat="51.8811320" lon="7.1942050">
        <ele>55.9680000</ele>
        <time>2015-03-10T16:06:24Z</time>
      </trkpt>
      <trkpt lat="51.8806810" lon="7.1948660">
        <ele>55.6900000</ele>
        <time>2015-03-10T16:06:38Z</time>
      </trkpt>
      <trkpt lat="51.8803810" lon="7.1954160">
        <ele>55.7270000</ele>
        <time>2015-03-10T16:06:49Z</time>
      </trkpt>
      <trkpt lat="51.8804560" lon="7.1957360">
        <ele>55.5350000</ele>
        <time>2015-03-10T16:06:54Z</time>
      </trkpt>
      <trkpt lat="51.8807200" lon="7.1965510">
        <ele>55.3590000</ele>
        <time>2015-03-10T16:07:10Z</time>
      </trkpt>
      <trkpt lat="51.8810090" lon="7.1975060">
        <ele>56.2340000</ele>
        <time>2015-03-10T16:07:29Z</time>
      </trkpt>
      <trkpt lat="51.8812140" lon="7.1982890">
        <ele>56.7560000</ele>
        <time>2015-03-10T16:07:46Z</time>
      </trkpt>
      <trkpt lat="51.8814660" lon="7.1991120">
        <ele>58.7970000</ele>
        <time>2015-03-10T16:08:05Z</time>
      </trkpt>
      <trkpt lat="51.8816760" lon="7.1999650">
        <ele>59.2320000</ele>
        <time>2015-03-10T16:08:21Z</time>
      </trkpt>
      <trkpt lat="51.8817750" lon="7.2010170">
        <ele>60.1560000</ele>
        <time>2015-03-10T16:08:39Z</time>
      </trkpt>
      <trkpt lat="51.8819510" lon="7.2025250">
        <ele>59.7430000</ele>
        <time>2015-03-10T16:09:06Z</time>
      </trkpt>
      <trkpt lat="51.8820990" lon="7.2037600">
        <ele>61.4250000</ele>
        <time>2015-03-10T16:09:29Z</time>
      </trkpt>
      <trkpt lat="51.8821280" lon="7.2039770">
        <ele>61.8180000</ele>
        <time>2015-03-10T16:09:33Z</time>
      </trkpt>
      <trkpt lat="51.8824620" lon="7.2046440">
        <ele>62.3660000</ele>
        <time>2015-03-10T16:09:50Z</time>
      </trkpt>
      <trkpt lat="51.8830350" lon="7.2056260">
        <ele>63.8600000</ele>
        <time>2015-03-10T16:10:16Z</time>
      </trkpt>
      <trkpt lat="51.8838000" lon="7.2069750">
        <ele>64.5000000</ele>
        <time>2015-03-10T16:10:50Z</time>
      </trkpt>
      <trkpt lat="51.8841840" lon="7.2072530">
        <ele>64.0720000</ele>
        <time>2015-03-10T16:11:06Z</time>
      </trkpt>
      <trkpt lat="51.8846900" lon="7.2065990">
        <ele>65.2520000</ele>
        <time>2015-03-10T16:11:26Z</time>
      </trkpt>
      <trkpt lat="51.8854040" lon="7.2056750">
        <ele>65.3270000</ele>
        <time>2015-03-10T16:11:52Z</time>
      </trkpt>
      <trkpt lat="51.8859090" lon="7.2046470">
        <ele>64.2000000</ele>
        <time>2015-03-10T16:12:13Z</time>
      </trkpt>
      <trkpt lat="51.8863580" lon="7.2037370">
        <ele>64.2140000</ele>
        <time>2015-03-10T16:12:32Z</time>
      </trkpt>
      <trkpt lat="51.8868960" lon="7.2031020">
        <ele>64.4850000</ele>
        <time>2015-03-10T16:12:51Z</time>
      </trkpt>
      <trkpt lat="51.8877190" lon="7.2022800">
        <ele>65.9360000</ele>
        <time>2015-03-10T16:13:18Z</time>
      </trkpt>
      <trkpt lat="51.8882450" lon="7.2017640">
        <ele>65.4490000</ele>
        <time>2015-03-10T16:13:34Z</time>
      </trkpt>
      <trkpt lat="51.8888580" lon="7.2008620">
        <ele>65.5350000</ele>
        <time>2015-03-10T16:13:56Z</time>
      </trkpt>
      <trkpt lat="51.8892710" lon="7.2000000">
        <ele>65.8090000</ele>
        <time>2015-03-10T16:14:14Z</time>
      </trkpt>
      <trkpt lat="51.8897990" lon="7.1991970">
        <ele>65.0520000</ele>
        <time>2015-03-10T16:14:34Z</time>
      </trkpt>
      <trkpt lat="51.8906140" lon="7.1979870">
        <ele>64.4510000</ele>
        <time>2015-03-10T16:15:06Z</time>
      </trkpt>
      <trkpt lat="51.8912750" lon="7.1969890">
        <ele>64.7210000</ele>
        <time>2015-03-10T16:15:33Z</time>
      </trkpt>
      <trkpt lat="51.8919160" lon="7.1960360">
        <ele>64.7810000</ele>
        <time>2015-03-10T16:15:59Z</time>
      </trkpt>
      <trkpt lat="51.8925560" lon="7.1951790">
        <ele>65.2190000</ele>
        <time>2015-03-10T16:16:23Z</time>
      </trkpt>
      <trkpt lat="51.8931080" lon="7.1947350">
        <ele>65.1900000</ele>
        <time>2015-03-10T16:16:41Z</time>
      </trkpt>
      <trkpt lat="51.8934370" lon="7.1944770">
        <ele>64.2910000</ele>
        <time>2015-03-10T16:16:52Z</time>
      </trkpt>
      <trkpt lat="51.8940460" lon="7.1939710">
        <ele>65.3460000</ele>
        <time>2015-03-10T16:17:12Z</time>
      </trkpt>
      <trkpt lat="51.8947750" lon="7.1931940">
        <ele>65.0020000</ele>
        <time>2015-03-10T16:17:38Z</time>
      </trkpt>
      <trkpt lat="51.8949320" lon="7.1930120">
        <ele>64.7850000</ele>
        <time>2015-03-10T16:17:44Z</time>
      </trkpt>
      <trkpt lat="51.8954310" lon="7.1924230">
        <ele>65.7910000</ele>
        <time>2015-03-10T16:18:03Z</time>
      </trkpt>
      <trkpt lat="51.8957830" lon="7.1920260">
        <ele>65.4900000</ele>
        <time>2015-03-10T16:18:19Z</time>
      </trkpt>
      <trkpt lat="51.8961750" lon="7.1913260">
        <ele>64.6540000</ele>
        <time>2015-03-10T16:18:35Z</time>
      </trkpt>
      <trkpt lat="51.8964740" lon="7.1910440">
        <ele>63.8760000</ele>
        <time>2015-03-10T16:18:45Z</time>
      </trkpt>
      <trkpt lat="51.8965550" lon="7.1907890">
        <ele>63.5670000</ele>
        <time>2015-03-10T16:18:50Z</time>
      </trkpt>
      <trkpt lat="51.8965540" lon="7.1905940">
        <ele>63.2170000</ele>
        <time>2015-03-10T16:18:54Z</time>
      </trkpt>
      <trkpt lat="51.8960660" lon="7.1900310">
        <ele>63.4720000</ele>
        <time>2015-03-10T16:19:11Z</time>
      </trkpt>
      <trkpt lat="51.8959490" lon="7.1898230">
        <ele>63.8240000</ele>
        <time>2015-03-10T16:19:23Z</time>
      </trkpt>
      <trkpt lat="51.8959050" lon="7.1897130">
        <ele>63.2150000</ele>
        <time>2015-03-10T16:19:49Z</time>
      </trkpt>
      <trkpt lat="51.8959300" lon="7.1895590">
        <ele>62.4180000</ele>
        <time>2015-03-10T16:19:53Z</time>
      </trkpt>
    </trkseg>
  </trk>

</gpx>
